Airfield :
LOGIN :

Register | Disclaimer

   EN    FR    IT 

 










Legend :    VFR   Marginal VFR   IFR   Intensive IFR   Very Intensive IFR
Visi :
Ceiling :
>= 8 km
>= 3000ft
5 to 8 km
1000 to 3000 ft
1500m to 5 km
500 to 1000 ft
800 to 1500m
200 to 500 ft
< 800m
< 200 ft
Symbols :   Thunderstorms  Fog  Heavy snow  Heavy precipitations  Wind > 20 kt
SIGMETs :     Misc.  Thunderstorms  Icing  Turbulence  Mountain Waves  Volcanic Ashes






- Airport Elevation : 289 ft
- IATA code : ZAD


LDZD - Zadar

CURRENT METAR :
  • 240930Z 27005KT 190V350 9999 FEW030 22/12 Q1020 BECMG 24008KT

EXPIRED METARs :
  • 240900Z VRB04KT 9999 FEW030 20/13 Q1020 NOSIG
  • 240830Z VRB02KT CAVOK 20/13 Q1020 NOSIG
  • 240800Z 16004KT 100V220 CAVOK 19/12 Q1020 NOSIG
  • 240730Z 13004KT 100V170 CAVOK 18/12 Q1020 NOSIG
  • 240700Z 13004KT 090V160 CAVOK 15/11 Q1019 NOSIG

TAF TAF LDZD
Valid from the 24 at 06:00 until the 25 at 06:00 UTC


240525Z 2406/2506 13004KT 9999 FEW040 TX24/2412Z TN10/2504Z
BECMG 2410/2412 24007KT
BECMG 2416/2418 VRB02KT
PROB30
TEMPO 2423/2505 3000 BR MIFG



MET'MAP, your aeronautical weather chart ! - Copyright ORBIFLY December 2007 - Disclaimer

ORBIFLY MET'MAP TEAM :

Programming & Development : Alexandra Zaïnal
Concept & original design : Baudouin d'Aumeries
Assistance for programming : Marc-Olivier Méhu
Technical & hardware support : Manuel Goepfert

Contact : metmap@orbifly.com




SOURCES & CREDITS :

   NOAA